Time;durP1;ratioP1;P1;durP2;ratioP2;P2;SDS_P1;SDS_P2;PMS_P1;PMS_P2;Temp;Humidity;BMP_temperature;BMP_pressure;BME280_temperature;BME280_humidity;BME280_pressure;Samples;Min_cycle;Max_cycle;Signal;HPM_P1;HPM_P2
2022/06/03 00:00:59;;;;;;;7.10;6.47;;;15.90;99.90;;;;;;4939893;29;20471;-67
2022/06/03 00:04:03;;;;;;;6.77;6.27;;;15.90;99.90;;;;;;4951065;28;20472;-65
2022/06/03 00:06:39;;;;;;;7.40;6.63;;;15.90;99.90;;;;;;4951691;29;20499;-63
2022/06/03 00:09:46;;;;;;;7.17;6.60;;;16.00;99.90;;;;;;4950595;29;20436;-64
2022/06/03 00:12:20;;;;;;;7.00;6.37;;;16.00;99.90;;;;;;4951592;29;20460;-63
2022/06/03 00:15:14;;;;;;;6.60;6.20;;;16.10;99.90;;;;;;4953135;29;20857;-65
2022/06/03 00:17:50;;;;;;;8.47;7.87;;;16.10;99.90;;;;;;4949951;29;20499;-64
2022/06/03 00:20:57;;;;;;;7.40;6.83;;;16.20;99.90;;;;;;4949368;29;20462;-64
2022/06/03 00:23:32;;;;;;;6.43;5.93;;;16.20;99.90;;;;;;4952572;29;20451;-64
2022/06/03 00:26:35;;;;;;;6.20;5.73;;;16.00;99.90;;;;;;4951557;28;20854;-65
2022/06/03 00:29:30;;;;;;;6.50;6.00;;;16.00;99.90;;;;;;4948778;29;20436;-64
2022/06/03 00:32:14;;;;;;;6.03;5.53;;;16.00;99.90;;;;;;4952727;29;20467;-65
2022/06/03 00:34:40;;;;;;;8.23;6.97;;;16.00;99.90;;;;;;4951494;29;20448;-65
2022/06/03 00:37:42;;;;;;;7.17;6.60;;;15.90;99.90;;;;;;4952898;29;20468;-64
2022/06/03 00:40:39;;;;;;;7.30;6.70;;;15.90;99.90;;;;;;4950493;29;20275;-63
2022/06/03 00:43:19;;;;;;;6.87;6.17;;;15.90;99.90;;;;;;4950790;29;20439;-64
2022/06/03 00:46:22;;;;;;;7.00;6.40;;;15.80;99.90;;;;;;4949450;29;20521;-65
2022/06/03 00:49:10;;;;;;;8.50;7.60;;;15.80;99.90;;;;;;4949121;29;20440;-64
2022/06/03 00:51:50;;;;;;;8.10;7.50;;;15.70;99.90;;;;;;4950174;29;20451;-65
2022/06/03 00:54:58;;;;;;;6.73;6.23;;;15.60;99.90;;;;;;4950954;29;20467;-65
2022/06/03 00:57:54;;;;;;;6.77;6.23;;;15.50;99.90;;;;;;4935122;29;20516;-65
2022/06/03 01:00:28;;;;;;;7.03;6.53;;;15.60;99.90;;;;;;4951458;28;20452;-65
2022/06/03 01:03:17;;;;;;;7.33;6.83;;;15.60;99.90;;;;;;4951277;29;20440;-64
2022/06/03 01:06:21;;;;;;;7.77;6.80;;;15.60;99.90;;;;;;4945644;29;20447;-65
2022/06/03 01:08:58;;;;;;;6.33;5.90;;;15.60;99.90;;;;;;4942267;29;20469;-64
2022/06/03 01:11:42;;;;;;;8.30;7.53;;;15.60;99.90;;;;;;4952088;28;20490;-65
2022/06/03 01:14:11;;;;;;;7.37;6.67;;;15.60;99.90;;;;;;4952374;29;20934;-64
2022/06/03 01:16:55;;;;;;;7.10;6.37;;;15.60;99.90;;;;;;4951192;29;20436;-64
2022/06/03 01:19:50;;;;;;;7.30;6.70;;;15.60;99.90;;;;;;4952076;28;20938;-64
2022/06/03 01:22:33;;;;;;;6.47;6.07;;;15.60;99.90;;;;;;4950473;29;20566;-64
2022/06/03 01:25:10;;;;;;;6.60;6.10;;;15.60;99.90;;;;;;4950079;29;20440;-63
2022/06/03 01:27:54;;;;;;;7.17;6.67;;;15.50;99.90;;;;;;4948303;29;20445;-64
2022/06/03 01:30:39;;;;;;;7.73;7.07;;;15.60;99.90;;;;;;4948450;28;20464;-64
2022/06/03 01:33:27;;;;;;;9.23;6.60;;;15.60;99.90;;;;;;4947542;29;20806;-64
2022/06/03 01:36:01;;;;;;;7.97;7.47;;;15.50;99.90;;;;;;4952429;29;20444;-64
2022/06/03 01:39:02;;;;;;;7.03;6.40;;;15.50;99.90;;;;;;4947560;29;20479;-64
2022/06/03 01:41:51;;;;;;;7.70;7.00;;;15.50;99.90;;;;;;4916833;28;20977;-64
2022/06/03 01:44:39;;;;;;;6.97;6.50;;;15.50;99.90;;;;;;4951039;29;20802;-64
2022/06/03 01:47:29;;;;;;;7.57;6.87;;;15.40;99.90;;;;;;4950492;29;20822;-64
2022/06/03 01:50:29;;;;;;;7.03;6.53;;;15.30;99.90;;;;;;4946780;29;20436;-64
2022/06/03 01:53:29;;;;;;;7.80;7.30;;;15.20;99.90;;;;;;4948414;29;20436;-63
2022/06/03 01:55:54;;;;;;;8.33;7.83;;;15.20;99.90;;;;;;4951806;29;21026;-64
2022/06/03 01:58:39;;;;;;;8.07;7.23;;;15.20;99.90;;;;;;4951618;29;20623;-64
2022/06/03 02:01:40;;;;;;;7.73;7.10;;;15.20;99.90;;;;;;4949389;28;20251;-64
2022/06/03 02:04:43;;;;;;;13.27;11.27;;;15.20;99.90;;;;;;4896866;29;20452;-65
2022/06/03 02:07:35;;;;;;;9.30;8.37;;;15.10;99.90;;;;;;4950417;29;20428;-65
2022/06/03 02:10:29;;;;;;;8.60;7.83;;;15.00;99.90;;;;;;4951199;28;20452;-64
2022/06/03 02:13:10;;;;;;;8.73;7.93;;;15.10;99.90;;;;;;4947622;29;20448;-64
2022/06/03 02:16:22;;;;;;;7.70;6.80;;;15.10;99.90;;;;;;4945601;29;20440;-63
2022/06/03 02:18:50;;;;;;;7.57;6.97;;;15.10;99.90;;;;;;4948756;29;20950;-63
2022/06/03 02:21:30;;;;;;;7.43;6.83;;;15.20;99.90;;;;;;4951627;28;20564;-64
2022/06/03 02:24:07;;;;;;;7.70;7.00;;;15.20;99.90;;;;;;4951780;29;20530;-64
2022/06/03 02:27:06;;;;;;;8.20;7.40;;;15.30;99.90;;;;;;4951880;29;20531;-64
2022/06/03 02:30:26;;;;;;;8.27;7.63;;;15.20;99.90;;;;;;4951337;29;21204;-64
2022/06/03 02:33:28;;;;;;;7.63;7.00;;;15.20;99.90;;;;;;4947571;29;20443;-64
2022/06/03 02:36:30;;;;;;;13.50;12.30;;;15.10;99.90;;;;;;4948135;29;20435;-63
2022/06/03 02:39:24;;;;;;;7.67;7.00;;;15.10;99.90;;;;;;4951034;28;20555;-65
2022/06/03 02:41:58;;;;;;;8.03;6.90;;;15.10;99.90;;;;;;4947353;29;20464;-63
2022/06/03 02:44:42;;;;;;;9.03;7.57;;;15.10;99.90;;;;;;4948543;29;20464;-64
2022/06/03 02:47:39;;;;;;;7.93;7.20;;;15.10;99.90;;;;;;4950815;29;20508;-63
2022/06/03 02:50:32;;;;;;;8.13;7.10;;;15.00;99.90;;;;;;4950000;29;20428;-64
2022/06/03 02:53:25;;;;;;;7.73;7.13;;;15.10;99.90;;;;;;4950456;29;20439;-64
2022/06/03 02:56:12;;;;;;;7.73;7.03;;;15.00;99.90;;;;;;4948372;29;20436;-64
2022/06/03 02:58:46;;;;;;;7.23;6.53;;;15.00;99.90;;;;;;4951845;29;20880;-64
2022/06/03 03:01:19;;;;;;;7.37;6.77;;;15.10;99.90;;;;;;4952760;29;20456;-64
2022/06/03 03:04:08;;;;;;;7.73;7.13;;;15.10;99.90;;;;;;4954292;29;20503;-63
2022/06/03 03:06:58;;;;;;;7.13;6.53;;;15.20;99.90;;;;;;4946783;29;20433;-64
2022/06/03 03:09:57;;;;;;;7.60;6.90;;;15.10;99.90;;;;;;4953619;29;20448;-63
2022/06/03 03:13:08;;;;;;;6.77;6.27;;;15.10;99.90;;;;;;4954232;29;20514;-64
2022/06/03 03:16:10;;;;;;;8.03;7.00;;;15.10;99.90;;;;;;4951704;29;20938;-64
2022/06/03 03:18:46;;;;;;;8.13;7.43;;;15.10;99.90;;;;;;4953587;28;20474;-64
2022/06/03 03:21:42;;;;;;;8.27;7.67;;;15.00;99.90;;;;;;4954793;28;20463;-65
2022/06/03 03:24:32;;;;;;;7.40;6.80;;;15.10;99.90;;;;;;4950600;29;20440;-65
2022/06/03 03:27:08;;;;;;;7.90;7.30;;;15.00;99.90;;;;;;4954747;29;20432;-65
2022/06/03 03:30:03;;;;;;;16.60;8.97;;;15.00;99.90;;;;;;4947746;28;20440;-65
2022/06/03 03:32:59;;;;;;;8.60;7.80;;;15.00;99.90;;;;;;4954389;28;20483;-65
2022/06/03 03:35:49;;;;;;;7.20;6.50;;;15.00;99.90;;;;;;4953262;29;20962;-65
2022/06/03 03:38:54;;;;;;;8.40;7.67;;;15.00;99.90;;;;;;4950680;29;20530;-64
2022/06/03 03:41:42;;;;;;;8.90;8.10;;;14.90;99.90;;;;;;4951835;28;20460;-64
2022/06/03 03:44:26;;;;;;;8.60;7.90;;;14.80;99.90;;;;;;4950950;29;20524;-64
2022/06/03 03:47:19;;;;;;;9.60;8.37;;;14.80;99.90;;;;;;4952176;29;20444;-64
2022/06/03 03:50:09;;;;;;;7.43;6.90;;;14.90;99.90;;;;;;4951789;29;20436;-64
2022/06/03 03:53:29;;;;;;;8.23;7.53;;;14.90;99.90;;;;;;4952917;29;20440;-64
2022/06/03 03:56:35;;;;;;;8.30;7.70;;;14.90;99.90;;;;;;4909705;29;20438;-65
2022/06/03 03:59:16;;;;;;;8.23;7.40;;;15.00;99.90;;;;;;4949708;29;20668;-64
2022/06/03 04:02:07;;;;;;;8.80;7.90;;;15.00;99.90;;;;;;4951670;28;20456;-65
2022/06/03 04:05:10;;;;;;;7.93;7.33;;;15.10;99.90;;;;;;4952672;29;20432;-64
2022/06/03 04:08:06;;;;;;;7.80;7.20;;;15.00;99.90;;;;;;4952120;29;20492;-64
2022/06/03 04:10:49;;;;;;;7.57;6.87;;;15.00;99.90;;;;;;4941915;28;20576;-64
2022/06/03 04:13:34;;;;;;;8.03;7.33;;;15.00;99.90;;;;;;4950305;29;20803;-64
2022/06/03 04:16:33;;;;;;;8.17;7.60;;;15.10;99.90;;;;;;4951352;28;20493;-64
2022/06/03 04:19:20;;;;;;;9.10;8.23;;;15.10;99.90;;;;;;4950525;29;20449;-64
2022/06/03 04:22:32;;;;;;;8.00;7.30;;;15.30;99.90;;;;;;4951733;28;20834;-64
2022/06/03 04:25:00;;;;;;;8.13;7.40;;;15.20;99.90;;;;;;4948111;28;20444;-63
2022/06/03 04:27:59;;;;;;;8.67;7.77;;;15.20;99.90;;;;;;4952823;29;20866;-64
2022/06/03 04:30:52;;;;;;;8.20;7.60;;;15.30;99.90;;;;;;4950655;28;20836;-64
2022/06/03 04:33:27;;;;;;;7.97;7.37;;;15.30;99.90;;;;;;4952027;29;20524;-62
2022/06/03 04:36:14;;;;;;;7.63;7.03;;;15.40;99.90;;;;;;4946972;29;20852;-64
2022/06/03 04:39:22;;;;;;;8.53;7.83;;;15.60;99.90;;;;;;4952575;29;20499;-62
2022/06/03 04:42:34;;;;;;;7.43;6.83;;;15.80;99.90;;;;;;4950664;28;20495;-63
2022/06/03 04:45:12;;;;;;;7.93;7.27;;;16.00;99.90;;;;;;4947626;29;20437;-62
2022/06/03 04:48:26;;;;;;;8.07;7.47;;;16.20;99.90;;;;;;4952084;29;20472;-63
2022/06/03 04:51:23;;;;;;;9.00;8.10;;;16.40;99.90;;;;;;4949716;29;20456;-64
2022/06/03 04:54:19;;;;;;;8.60;7.80;;;16.70;99.90;;;;;;4952743;29;20978;-63
2022/06/03 04:57:09;;;;;;;8.97;8.37;;;17.00;99.90;;;;;;4952119;29;20856;-62
2022/06/03 04:59:49;;;;;;;8.63;8.03;;;17.20;99.90;;;;;;4947677;29;20432;-62
2022/06/03 05:02:52;;;;;;;10.93;9.83;;;17.30;99.90;;;;;;4951871;29;20452;-63
2022/06/03 05:05:17;;;;;;;10.20;9.20;;;17.40;99.90;;;;;;4951074;29;20578;-64
2022/06/03 05:08:01;;;;;;;12.07;9.10;;;17.40;99.90;;;;;;4951569;28;20527;-64
2022/06/03 05:10:46;;;;;;;8.23;7.43;;;17.60;99.90;;;;;;4948949;29;20220;-63
2022/06/03 05:13:11;;;;;;;9.10;8.40;;;17.80;99.90;;;;;;4952290;28;20479;-64
2022/06/03 05:15:48;;;;;;;9.30;8.70;;;18.00;99.90;;;;;;4950394;29;20464;-64
2022/06/03 05:18:28;;;;;;;9.70;8.80;;;18.10;99.90;;;;;;4951010;29;20204;-64
2022/06/03 05:21:36;;;;;;;11.03;10.00;;;18.40;99.90;;;;;;4949318;28;20997;-64
2022/06/03 05:24:14;;;;;;;9.67;8.67;;;18.60;99.90;;;;;;4947700;29;20444;-66
2022/06/03 05:27:16;;;;;;;8.57;7.97;;;18.70;99.90;;;;;;4949396;29;20814;-66
2022/06/03 05:30:02;;;;;;;9.40;8.70;;;18.80;99.90;;;;;;4949105;29;20442;-64
2022/06/03 05:32:52;;;;;;;8.57;7.67;;;18.80;99.90;;;;;;4944452;29;20911;-64
2022/06/03 05:35:27;;;;;;;11.27;8.90;;;19.00;99.90;;;;;;4950383;29;20473;-64
2022/06/03 05:38:29;;;;;;;9.37;8.67;;;19.20;99.90;;;;;;4951475;29;20467;-66
2022/06/03 05:42:23;;;;;;;11.90;9.47;;;19.40;99.90;;;;;;4950923;28;20487;-65
2022/06/03 05:44:30;;;;;;;9.27;8.50;;;19.60;99.90;;;;;;4950368;29;20526;-65
2022/06/03 05:47:03;;;;;;;9.13;8.33;;;19.50;99.90;;;;;;4947768;29;20471;-64
2022/06/03 05:49:41;;;;;;;9.90;9.00;;;19.60;99.90;;;;;;4948589;28;20590;-64
2022/06/03 05:52:47;;;;;;;11.10;10.10;;;19.80;99.90;;;;;;4948476;28;20476;-66
2022/06/03 05:55:15;;;;;;;9.80;8.90;;;19.80;99.90;;;;;;4922828;29;20452;-65
2022/06/03 05:58:17;;;;;;;9.80;9.10;;;19.80;99.90;;;;;;4950866;29;20478;-65
2022/06/03 06:01:12;;;;;;;10.27;8.27;;;19.80;99.90;;;;;;4951015;29;20953;-65
2022/06/03 06:04:18;;;;;;;8.47;7.77;;;20.10;99.90;;;;;;4943999;29;20428;-65
2022/06/03 06:07:05;;;;;;;9.30;8.60;;;20.50;99.90;;;;;;4949765;29;20440;-64
2022/06/03 06:10:02;;;;;;;12.57;9.37;;;20.80;99.90;;;;;;4948916;28;20444;-64
2022/06/03 06:12:36;;;;;;;10.30;9.30;;;20.90;99.90;;;;;;4948829;29;20452;-62
2022/06/03 06:15:21;;;;;;;9.10;8.50;;;21.00;99.90;;;;;;4942477;29;20456;-64
2022/06/03 06:17:55;;;;;;;10.10;9.10;;;21.10;99.90;;;;;;4948715;29;20524;-65
2022/06/03 06:20:56;;;;;;;8.90;8.20;;;21.20;99.90;;;;;;4949549;28;20990;-66
2022/06/03 06:23:38;;;;;;;10.77;8.93;;;21.20;99.90;;;;;;4952515;28;20448;-67
2022/06/03 06:26:12;;;;;;;9.40;8.47;;;21.10;99.90;;;;;;4954058;29;20949;-66
2022/06/03 06:28:59;;;;;;;9.30;8.70;;;20.80;99.90;;;;;;4953933;29;20984;-66
2022/06/03 06:31:56;;;;;;;8.93;8.23;;;20.70;99.90;;;;;;4954110;28;20466;-66
2022/06/03 06:34:50;;;;;;;7.70;7.10;;;20.90;99.90;;;;;;4954543;29;20941;-67
2022/06/03 06:37:54;;;;;;;9.37;8.60;;;20.90;99.90;;;;;;4947811;28;20460;-67
2022/06/03 06:40:26;;;;;;;10.27;9.57;;;20.90;99.90;;;;;;4971232;28;20501;-67
2022/06/03 06:43:15;;;;;;;9.90;9.10;;;21.20;99.90;;;;;;4955741;29;20852;-66
2022/06/03 06:45:41;;;;;;;10.03;9.23;;;21.60;99.90;;;;;;4952566;29;20436;-67
2022/06/03 06:48:34;;;;;;;11.10;10.20;;;22.00;99.90;;;;;;4956426;29;20439;-65
2022/06/03 06:51:24;;;;;;;9.93;8.93;;;22.30;99.90;;;;;;4955581;29;20312;-64
2022/06/03 06:54:01;;;;;;;8.50;7.90;;;22.50;99.90;;;;;;4940954;29;20444;-64
2022/06/03 06:56:35;;;;;;;8.53;7.83;;;22.70;99.90;;;;;;4955618;29;20478;-63
2022/06/03 06:59:07;;;;;;;9.10;8.40;;;22.60;99.90;;;;;;4955108;29;20467;-64
2022/06/03 07:01:44;;;;;;;8.70;8.00;;;22.70;99.90;;;;;;4947470;29;20563;-64
2022/06/03 07:04:17;;;;;;;8.93;8.27;;;22.60;99.90;;;;;;4952238;29;20441;-65
2022/06/03 07:06:48;;;;;;;8.30;7.60;;;22.60;99.90;;;;;;4949293;29;20942;-64
2022/06/03 07:09:47;;;;;;;7.90;7.30;;;22.90;99.90;;;;;;4955653;29;20897;-64
2022/06/03 07:12:22;;;;;;;7.97;7.27;;;23.30;99.90;;;;;;4955015;29;20514;-64
2022/06/03 07:15:01;;;;;;;6.93;6.43;;;23.60;99.90;;;;;;4948850;29;20435;-63
2022/06/03 07:21:29;;;;;;;7.50;6.90;;;24.00;99.90;;;;;;4946512;29;20449;-65
2022/06/03 07:24:03;;;;;;;8.27;7.47;;;24.60;99.90;;;;;;4919160;29;20421;-64
2022/06/03 07:26:46;;;;;;;9.53;7.43;;;24.80;99.90;;;;;;4954339;29;20464;-64
2022/06/03 07:29:38;;;;;;;8.13;7.43;;;25.00;99.90;;;;;;4953205;29;20424;-63
2022/06/03 07:32:19;;;;;;;12.43;7.63;;;25.30;99.90;;;;;;4951514;29;20449;-65
2022/06/03 07:34:56;;;;;;;7.50;6.90;;;25.60;99.90;;;;;;4947378;28;20436;-65
2022/06/03 07:37:25;;;;;;;9.00;7.53;;;26.20;99.90;;;;;;4949727;28;20572;-73
2022/06/03 07:40:20;;;;;;;10.17;7.80;;;26.40;99.60;;;;;;4946690;28;20436;-73
2022/06/03 07:43:09;;;;;;;10.13;8.20;;;25.60;99.90;;;;;;4949398;29;20444;-73
2022/06/03 07:45:51;;;;;;;8.73;7.47;;;24.80;99.90;;;;;;4954470;28;20432;-73
2022/06/03 07:48:20;;;;;;;11.90;9.37;;;24.40;99.90;;;;;;4953183;28;20444;-65
2022/06/03 07:51:10;;;;;;;9.90;9.00;;;24.50;99.90;;;;;;4952934;28;20460;-65
2022/06/03 07:53:59;;;;;;;7.37;6.73;;;25.30;99.90;;;;;;4945019;29;20448;-67
2022/06/03 07:56:29;;;;;;;7.13;6.53;;;26.00;99.90;;;;;;4951979;29;20441;-65
2022/06/03 07:58:57;;;;;;;7.40;6.70;;;26.40;99.90;;;;;;4946916;29;20472;-64
2022/06/03 08:01:27;;;;;;;8.10;7.50;;;26.70;99.60;;;;;;4952745;29;20990;-65
2022/06/03 08:03:53;;;;;;;6.97;6.37;;;26.10;99.80;;;;;;4952221;29;20432;-65
2022/06/03 08:06:27;;;;;;;6.80;6.20;;;26.30;99.60;;;;;;4953847;28;20432;-65
2022/06/03 08:11:43;;;;;;;6.87;6.13;;;27.00;98.40;;;;;;4953363;29;20883;-65
2022/06/03 08:14:08;;;;;;;6.30;5.80;;;27.10;98.00;;;;;;4952685;29;20475;-65
2022/06/03 08:16:38;;;;;;;7.83;6.00;;;26.70;98.30;;;;;;4949831;29;20480;-65
2022/06/03 08:19:17;;;;;;;7.67;5.87;;;27.00;98.30;;;;;;4951111;28;20200;-66
2022/06/03 08:21:52;;;;;;;6.60;5.83;;;27.10;97.70;;;;;;4946561;29;20950;-65
2022/06/03 08:24:22;;;;;;;5.43;4.93;;;27.60;97.10;;;;;;4952495;28;20474;-66
2022/06/03 08:27:02;;;;;;;5.77;5.27;;;27.90;96.20;;;;;;4951561;29;20424;-67
2022/06/03 08:29:32;;;;;;;6.10;4.97;;;28.20;95.60;;;;;;4951316;29;20436;-65
2022/06/03 08:31:59;;;;;;;5.83;5.40;;;28.60;95.10;;;;;;4950710;29;21012;-66
2022/06/03 08:34:31;;;;;;;5.60;5.10;;;29.10;93.80;;;;;;4952352;29;20876;-66
2022/06/03 08:36:58;;;;;;;7.03;5.23;;;29.50;92.90;;;;;;4950707;29;20465;-67
2022/06/03 08:39:27;;;;;;;6.30;5.33;;;29.70;92.50;;;;;;4953047;28;20445;-65
2022/06/03 08:41:52;;;;;;;5.50;5.10;;;29.90;92.00;;;;;;4949847;29;20475;-66
2022/06/03 08:44:38;;;;;;;8.70;5.13;;;30.00;91.50;;;;;;4951802;29;20436;-66
2022/06/03 08:47:12;;;;;;;5.90;5.50;;;30.20;91.10;;;;;;4949803;28;20189;-65
2022/06/03 08:50:05;;;;;;;4.97;4.57;;;30.30;90.50;;;;;;4949169;29;20863;-65
2022/06/03 08:52:35;;;;;;;5.77;5.27;;;30.60;89.50;;;;;;4949651;29;20463;-65
2022/06/03 08:55:08;;;;;;;5.50;5.20;;;30.90;87.50;;;;;;4945448;29;20807;-64
2022/06/03 08:57:44;;;;;;;8.30;5.50;;;30.80;86.60;;;;;;4950456;29;20468;-65
2022/06/03 09:00:18;;;;;;;5.50;5.03;;;30.00;87.50;;;;;;4951819;28;20785;-65
2022/06/03 09:03:11;;;;;;;5.93;5.43;;;29.80;89.30;;;;;;4951540;29;20526;-65
2022/06/03 09:05:52;;;;;;;5.60;5.23;;;29.90;88.40;;;;;;4950750;29;20807;-65
2022/06/03 09:08:36;;;;;;;4.63;4.33;;;29.90;87.20;;;;;;4950788;29;20796;-66
2022/06/03 09:11:34;;;;;;;5.77;5.37;;;30.10;89.20;;;;;;4948806;28;20495;-66
2022/06/03 09:14:12;;;;;;;5.23;4.40;;;30.10;86.30;;;;;;4932144;28;20456;-65
2022/06/03 09:16:40;;;;;;;5.10;4.70;;;29.80;86.80;;;;;;4951645;29;20440;-65
2022/06/03 09:19:19;;;;;;;5.13;4.83;;;30.10;87.50;;;;;;4951353;28;20441;-65
2022/06/03 09:21:50;;;;;;;5.50;5.00;;;30.40;85.90;;;;;;4952100;28;20478;-65
2022/06/03 09:24:20;;;;;;;5.40;5.00;;;30.30;85.20;;;;;;4950336;29;20444;-65
2022/06/03 09:26:55;;;;;;;4.93;4.60;;;29.80;85.40;;;;;;4950573;29;20544;-65
2022/06/03 09:29:21;;;;;;;4.30;4.10;;;29.90;85.00;;;;;;4951581;29;20587;-65
2022/06/03 09:31:54;;;;;;;4.70;4.40;;;30.10;84.20;;;;;;4953642;29;20914;-65
2022/06/03 09:34:31;;;;;;;4.03;3.73;;;30.30;83.20;;;;;;4953642;29;20408;-66
2022/06/03 09:36:57;;;;;;;4.53;4.23;;;30.90;83.40;;;;;;4949679;29;20432;-65
2022/06/03 09:39:23;;;;;;;4.90;4.50;;;31.40;82.10;;;;;;4951627;29;20439;-65
2022/06/03 09:41:55;;;;;;;5.93;4.50;;;31.60;81.00;;;;;;4952653;29;20677;-65
2022/06/03 09:44:23;;;;;;;4.83;4.27;;;31.70;80.60;;;;;;4951674;28;20448;-66
2022/06/03 09:46:57;;;;;;;5.47;5.17;;;32.20;79.60;;;;;;4951321;29;20526;-66
2022/06/03 09:49:24;;;;;;;5.03;4.70;;;32.40;77.50;;;;;;4951268;29;20950;-65
2022/06/03 09:51:56;;;;;;;5.17;4.87;;;32.80;77.00;;;;;;4952735;28;20452;-66
2022/06/03 09:54:36;;;;;;;4.90;4.53;;;32.90;74.90;;;;;;4952186;29;20437;-66
2022/06/03 09:57:22;;;;;;;5.40;5.10;;;33.20;74.10;;;;;;4952517;29;20472;-66
2022/06/03 10:00:21;;;;;;;5.53;4.73;;;33.20;73.20;;;;;;4950755;29;20436;-66
2022/06/03 10:02:46;;;;;;;4.60;4.20;;;33.60;71.30;;;;;;4944763;29;20436;-65
2022/06/03 10:05:16;;;;;;;5.10;4.70;;;34.10;69.50;;;;;;4955633;28;20961;-65
2022/06/03 10:07:45;;;;;;;5.50;5.03;;;34.10;69.00;;;;;;4956076;29;20196;-65
2022/06/03 10:13:02;;;;;;;6.43;4.50;;;34.40;67.00;;;;;;4953278;29;20447;-66
2022/06/03 10:15:46;;;;;;;5.07;4.67;;;34.80;65.40;;;;;;4946748;29;20494;-65
2022/06/03 10:18:23;;;;;;;4.63;4.23;;;34.90;64.20;;;;;;4955888;28;20464;-66
2022/06/03 10:20:55;;;;;;;5.20;4.70;;;34.70;64.30;;;;;;4955534;28;20459;-66
2022/06/03 10:23:24;;;;;;;4.70;4.40;;;35.30;63.70;;;;;;4955101;29;20470;-66
2022/06/03 10:25:51;;;;;;;4.70;4.40;;;36.50;61.00;;;;;;4950985;29;20539;-66
2022/06/03 10:28:17;;;;;;;3.53;3.33;;;37.00;58.10;;;;;;4953736;29;20451;-65
2022/06/03 10:30:45;;;;;;;5.10;4.80;;;36.90;56.50;;;;;;4955248;28;20468;-66
2022/06/03 10:33:21;;;;;;;8.00;6.17;;;37.50;55.10;;;;;;4956096;29;20440;-65
2022/06/03 10:35:49;;;;;;;3.67;3.47;;;38.00;53.60;;;;;;4954646;29;20439;-65
2022/06/03 10:38:18;;;;;;;5.43;5.03;;;37.10;53.50;;;;;;4955498;29;20499;-63
2022/06/03 10:40:52;;;;;;;4.20;3.60;;;36.30;53.80;;;;;;4955735;28;20480;-63
2022/06/03 10:43:30;;;;;;;10.30;4.07;;;36.10;54.10;;;;;;4955649;29;20512;-66
2022/06/03 10:46:17;;;;;;;5.07;4.70;;;35.50;54.70;;;;;;4950289;29;20527;-65
2022/06/03 10:48:44;;;;;;;4.13;3.83;;;34.60;55.70;;;;;;4953597;29;20870;-65
2022/06/03 11:01:06;;;;;;;4.00;3.73;;;35.00;54.70;;;;;;4954966;28;20456;-66
2022/06/03 11:02:34;;;;;;;4.40;4.10;;;36.20;51.70;;;;;;4948903;28;20525;-65
2022/06/03 11:05:23;;;;;;;4.20;3.70;;;35.60;52.70;;;;;;4954659;29;20447;-65
2022/06/03 11:08:05;;;;;;;4.03;3.73;;;34.80;53.10;;;;;;4953232;29;20432;-67
2022/06/03 11:10:54;;;;;;;4.00;3.60;;;34.40;53.30;;;;;;4945166;29;20480;-66
2022/06/03 11:13:38;;;;;;;4.53;4.23;;;33.70;54.50;;;;;;4955433;29;20858;-66
2022/06/03 11:16:12;;;;;;;4.53;4.23;;;32.10;56.60;;;;;;4955684;29;20491;-65
2022/06/03 11:18:38;;;;;;;5.43;5.00;;;31.10;57.20;;;;;;4954501;29;20507;-66
2022/06/03 11:21:24;;;;;;;5.93;4.30;;;30.50;57.90;;;;;;4954881;28;20946;-65
2022/06/03 11:23:50;;;;;;;3.90;3.27;;;30.50;59.10;;;;;;4955438;29;20192;-65
2022/06/03 11:26:16;;;;;;;6.40;3.93;;;30.50;58.90;;;;;;4955536;29;20927;-65
2022/06/03 11:29:00;;;;;;;4.20;4.00;;;30.10;58.80;;;;;;4953570;29;20491;-65
2022/06/03 11:31:31;;;;;;;3.87;3.63;;;30.00;61.10;;;;;;4955075;28;20211;-64
2022/06/03 11:34:16;;;;;;;4.67;4.37;;;29.80;62.50;;;;;;4954405;29;20962;-65
2022/06/03 11:36:55;;;;;;;4.00;3.70;;;29.70;64.10;;;;;;4951770;29;20854;-66
2022/06/03 11:39:35;;;;;;;9.80;9.10;;;29.80;62.90;;;;;;4954500;28;20441;-66
2022/06/03 11:42:19;;;;;;;6.27;5.77;;;29.80;63.60;;;;;;4954178;28;20526;-65
2022/06/03 11:45:09;;;;;;;5.20;4.63;;;30.00;65.60;;;;;;4951591;29;20440;-66
2022/06/03 11:47:48;;;;;;;4.43;4.13;;;30.30;64.60;;;;;;4949228;29;20839;-66
2022/06/03 11:50:16;;;;;;;5.67;4.50;;;30.40;65.40;;;;;;4950268;28;20884;-66
2022/06/03 11:52:42;;;;;;;4.90;4.60;;;30.50;65.70;;;;;;4954012;29;20499;-66
2022/06/03 11:55:08;;;;;;;6.37;5.37;;;30.30;66.00;;;;;;4953879;29;20440;-65
2022/06/03 11:57:37;;;;;;;5.70;5.20;;;30.10;67.30;;;;;;4953487;28;20358;-64
2022/06/03 12:00:11;;;;;;;4.97;4.57;;;30.00;68.90;;;;;;4950176;29;20252;-65
2022/06/03 12:02:50;;;;;;;7.73;5.30;;;29.90;69.70;;;;;;4954521;29;20439;-66
2022/06/03 12:05:21;;;;;;;6.23;5.73;;;29.60;70.80;;;;;;4952679;29;20980;-65
2022/06/03 12:08:05;;;;;;;6.00;5.57;;;29.10;71.70;;;;;;4952149;29;20436;-65
2022/06/03 12:11:01;;;;;;;5.27;4.97;;;29.10;73.00;;;;;;4946570;28;20840;-65
2022/06/03 12:13:31;;;;;;;5.83;5.43;;;29.10;73.30;;;;;;4954028;29;20436;-65
2022/06/03 12:15:56;;;;;;;6.37;5.70;;;29.10;74.10;;;;;;4952254;28;20444;-65
2022/06/03 12:18:31;;;;;;;6.50;5.57;;;29.00;74.30;;;;;;4953756;29;20475;-65
2022/06/03 12:20:57;;;;;;;8.20;4.73;;;29.10;74.40;;;;;;4953978;28;20686;-65
2022/06/03 12:23:23;;;;;;;6.37;5.87;;;29.30;73.70;;;;;;4952973;29;20804;-65
2022/06/03 12:26:05;;;;;;;4.67;4.30;;;29.40;73.20;;;;;;4952413;29;20437;-65
2022/06/03 12:28:41;;;;;;;5.70;5.27;;;29.50;73.80;;;;;;4952401;29;21206;-65
2022/06/03 12:31:26;;;;;;;5.60;5.20;;;29.60;72.20;;;;;;4953868;28;20961;-64
2022/06/03 12:34:11;;;;;;;5.93;5.10;;;29.40;71.90;;;;;;4954108;29;20854;-65
2022/06/03 12:36:36;;;;;;;5.50;5.10;;;29.10;73.00;;;;;;4953031;29;20910;-66
2022/06/03 12:39:05;;;;;;;8.50;5.20;;;28.90;74.40;;;;;;4952323;29;20527;-64
2022/06/03 12:41:45;;;;;;;6.60;6.00;;;28.70;75.20;;;;;;4952135;29;20489;-65
2022/06/03 12:44:32;;;;;;;6.30;5.80;;;28.70;76.20;;;;;;4950809;29;20947;-66
2022/06/03 12:47:32;;;;;;;6.53;6.00;;;28.50;76.30;;;;;;4953197;29;20479;-65
2022/06/03 12:50:24;;;;;;;5.73;5.33;;;28.30;76.70;;;;;;4949175;28;20432;-65
2022/06/03 12:53:00;;;;;;;5.80;5.20;;;28.40;80.10;;;;;;4952618;29;20799;-64
2022/06/03 12:55:29;;;;;;;6.70;6.17;;;28.30;78.40;;;;;;4953856;29;20938;-65
2022/06/03 12:58:15;;;;;;;5.87;5.47;;;28.20;80.40;;;;;;4952454;29;20452;-65
2022/06/03 13:00:53;;;;;;;5.67;5.13;;;28.10;82.20;;;;;;4951590;28;20977;-65
2022/06/03 13:03:25;;;;;;;8.93;8.23;;;28.30;82.60;;;;;;4953652;29;20440;-66
2022/06/03 13:05:53;;;;;;;8.43;7.40;;;28.00;86.20;;;;;;4951520;29;20851;-65
2022/06/03 13:08:27;;;;;;;9.70;8.27;;;28.10;91.30;;;;;;4951125;29;20519;-65
2022/06/03 13:10:59;;;;;;;6.70;6.27;;;28.30;94.80;;;;;;4951365;28;20487;-65
2022/06/03 13:13:28;;;;;;;7.27;6.60;;;28.60;98.20;;;;;;4952244;29;20451;-65
2022/06/03 13:16:14;;;;;;;8.33;7.63;;;29.00;97.80;;;;;;4952514;29;20444;-65
2022/06/03 13:18:42;;;;;;;9.17;5.83;;;29.20;96.30;;;;;;4948062;28;20522;-65
2022/06/03 13:21:07;;;;;;;6.27;5.77;;;29.20;94.70;;;;;;4952179;28;20928;-64
2022/06/03 13:23:37;;;;;;;7.40;6.90;;;29.10;93.80;;;;;;4952035;29;20436;-66
2022/06/03 13:28:55;;;;;;;8.20;7.60;;;28.40;93.50;;;;;;4951429;29;20443;-65
2022/06/03 13:31:26;;;;;;;7.37;6.77;;;28.10;93.80;;;;;;4953320;28;20822;-65
2022/06/03 13:34:16;;;;;;;7.13;6.53;;;27.80;95.00;;;;;;4953322;28;21009;-64
2022/06/03 13:36:51;;;;;;;9.27;8.57;;;27.80;95.40;;;;;;4948191;29;20812;-66
2022/06/03 13:39:28;;;;;;;9.07;8.33;;;27.60;95.60;;;;;;4951774;29;20437;-65
2022/06/03 13:45:13;;;;;;;10.83;9.97;;;27.20;96.10;;;;;;4947060;29;20803;-65
2022/06/03 13:47:42;;;;;;;9.57;8.87;;;27.10;96.90;;;;;;4925491;28;20448;-66
2022/06/03 13:50:14;;;;;;;10.40;6.13;;;27.20;97.80;;;;;;4951937;29;20491;-64
2022/06/03 13:52:45;;;;;;;7.93;7.33;;;27.20;97.10;;;;;;4951885;29;20433;-65
2022/06/03 13:55:28;;;;;;;9.90;8.90;;;27.30;99.90;;;;;;4950643;29;20467;-65
2022/06/03 13:58:06;;;;;;;9.77;8.90;;;27.40;99.90;;;;;;4951948;29;20471;-65
2022/06/03 14:00:34;;;;;;;12.00;11.20;;;27.20;99.90;;;;;;4945368;29;20827;-65
2022/06/03 14:03:03;;;;;;;10.03;9.33;;;27.30;99.90;;;;;;4951142;29;20436;-65
2022/06/03 14:05:40;;;;;;;8.90;8.20;;;27.20;99.90;;;;;;4951414;29;20564;-64
2022/06/03 14:08:20;;;;;;;10.27;9.40;;;26.80;99.90;;;;;;4952448;29;20801;-65
2022/06/03 14:11:12;;;;;;;14.20;12.80;;;26.70;99.90;;;;;;4951117;29;20537;-66
2022/06/03 14:13:52;;;;;;;12.87;11.77;;;26.70;99.90;;;;;;4950640;29;20437;-64
2022/06/03 14:16:30;;;;;;;10.20;8.97;;;26.80;99.90;;;;;;4950807;29;20440;-64
2022/06/03 14:19:08;;;;;;;10.00;9.00;;;26.80;99.90;;;;;;4951504;29;20508;-64
2022/06/03 14:21:41;;;;;;;8.10;7.40;;;26.80;99.90;;;;;;4950363;29;20452;-66
2022/06/03 14:24:24;;;;;;;11.90;8.83;;;26.80;99.90;;;;;;4950094;29;20777;-64
2022/06/03 14:27:24;;;;;;;12.53;11.33;;;26.40;99.70;;;;;;4951139;29;20440;-65